Time;durP1;ratioP1;P1;durP2;ratioP2;P2;SDS_P1;SDS_P2;PMS_P1;PMS_P2;Temp;Humidity;BMP_temperature;BMP_pressure;BME280_temperature;BME280_humidity;BME280_pressure;Samples;Min_cycle;Max_cycle;Signal;HPM_P1;HPM_P2
2023/09/14 00:02:21;;;;;;;;;22.00;17.00;;;;;20.86;67.25;101592.47;5036717;28;45815;-79
2023/09/14 00:04:50;;;;;;;;;17.67;17.33;;;;;20.97;67.40;101616.13;5035725;28;45332;-73
2023/09/14 00:07:15;;;;;;;;;19.33;17.00;;;;;21.05;67.25;101613.28;5020872;28;45438;-74
2023/09/14 00:09:41;;;;;;;;;18.33;16.33;;;;;21.08;67.24;101615.84;5037396;28;45571;-74
2023/09/14 00:12:06;;;;;;;;;17.33;16.00;;;;;21.11;67.23;101607.75;5041667;28;45457;-74
2023/09/14 00:14:32;;;;;;;;;22.67;20.67;;;;;21.11;67.27;101610.44;5058338;27;45344;-75
2023/09/14 00:17:01;;;;;;;;;15.33;15.33;;;;;21.09;67.22;101615.78;5063531;27;45475;-74
2023/09/14 00:19:27;;;;;;;;;20.00;20.00;;;;;21.05;67.48;101619.47;5056936;27;46133;-71
2023/09/14 00:21:53;;;;;;;;;25.00;21.33;;;;;21.03;67.71;101615.97;5067839;28;45828;-75
2023/09/14 00:24:19;;;;;;;;;19.33;19.33;;;;;20.91;67.91;101606.53;5061846;27;45726;-80
2023/09/14 00:26:44;;;;;;;;;24.33;20.00;;;;;21.01;67.76;101614.28;5089350;27;45458;-77
2023/09/14 00:29:10;;;;;;;;;20.67;18.67;;;;;20.95;68.15;101612.63;5063362;28;48001;-76
2023/09/14 00:31:38;;;;;;;;;22.00;21.33;;;;;20.81;68.73;101621.00;5064625;27;45557;-76
2023/09/14 00:34:07;;;;;;;;;24.67;22.00;;;;;20.54;69.30;101579.97;5055548;28;45628;-77
2023/09/14 00:36:39;;;;;;;;;25.33;22.33;;;;;20.72;69.12;101613.25;5054438;27;45559;-76
2023/09/14 00:39:08;;;;;;;;;27.00;20.33;;;;;20.64;68.86;101604.59;5066499;28;45291;-77
2023/09/14 00:41:34;;;;;;;;;19.00;18.00;;;;;20.75;69.25;101618.50;5056588;27;45603;-80
2023/09/14 00:44:01;;;;;;;;;19.33;17.00;;;;;20.74;69.14;101619.44;5062122;27;45415;-73
2023/09/14 00:46:27;;;;;;;;;23.67;21.67;;;;;20.66;69.60;101608.97;5067907;27;45879;-79
2023/09/14 00:48:53;;;;;;;;;24.33;22.67;;;;;20.64;68.72;101613.44;5065020;27;46374;-79
2023/09/14 00:51:21;;;;;;;;;20.33;19.33;;;;;20.65;69.11;101615.22;5055780;27;45633;-74
2023/09/14 00:53:49;;;;;;;;;23.67;22.33;;;;;20.54;69.31;101602.13;5059724;28;45482;-80
2023/09/14 00:56:15;;;;;;;;;22.00;21.00;;;;;20.55;69.65;101608.34;5054474;27;45450;-79
2023/09/14 00:58:41;;;;;;;;;22.33;18.67;;;;;20.63;69.47;101622.34;5058397;27;45480;-78
2023/09/14 01:01:07;;;;;;;;;22.33;20.00;;;;;20.66;69.58;101622.25;5066701;27;45468;-79
2023/09/14 01:03:33;;;;;;;;;23.67;19.67;;;;;20.63;69.46;101609.03;5089838;27;45428;-78
2023/09/14 01:05:59;;;;;;;;;24.00;21.00;;;;;20.54;69.17;101574.66;5056980;28;45342;-78
2023/09/14 01:08:25;;;;;;;;;18.67;17.67;;;;;20.79;69.23;101611.31;5066339;28;46269;-78
2023/09/14 01:10:51;;;;;;;;;22.33;19.67;;;;;20.62;69.79;101604.66;5064345;27;45481;-79
2023/09/14 01:13:47;;;;;;;;;18.33;16.67;;;;;20.56;70.21;101620.75;5060000;27;45331;-79
2023/09/14 01:16:26;;;;;;;;;21.00;19.00;;;;;20.54;69.77;101609.25;5063753;27;45547;-75
2023/09/14 01:18:59;;;;;;;;;19.00;14.00;;;;;20.48;69.73;101609.41;5058324;27;45415;-79
2023/09/14 01:21:55;;;;;;;;;19.67;17.33;;;;;20.60;69.75;101626.91;5058263;27;45961;-79
2023/09/14 01:24:38;;;;;;;;;19.00;15.33;;;;;20.38;70.10;101605.22;5061321;27;45461;-79
2023/09/14 01:27:05;;;;;;;;;20.00;19.67;;;;;20.45;70.30;101617.47;5066250;27;45434;-79
2023/09/14 01:29:31;;;;;;;;;23.00;23.00;;;;;20.33;70.39;101608.00;5062538;27;45515;-81
2023/09/14 01:31:56;;;;;;;;;20.00;18.67;;;;;20.42;70.42;101628.19;5059159;27;45785;-78
2023/09/14 01:34:22;;;;;;;;;23.33;21.67;;;;;20.33;70.38;101615.97;5059947;27;45510;-77
2023/09/14 01:36:58;;;;;;;;;20.00;16.33;;;;;20.26;70.60;101609.97;5063005;27;45306;-78
2023/09/14 01:39:26;;;;;;;;;21.33;19.00;;;;;20.41;70.58;101622.00;5063904;27;46458;-77
2023/09/14 01:41:54;;;;;;;;;23.67;22.33;;;;;20.24;70.99;101600.25;5059134;27;45378;-78
2023/09/14 01:44:27;;;;;;;;;24.67;22.00;;;;;20.15;71.52;101587.19;5061496;27;45442;-77
2023/09/14 01:46:56;;;;;;;;;18.00;17.00;;;;;20.27;71.54;101619.66;5061011;27;45376;-78
2023/09/14 01:49:23;;;;;;;;;21.67;20.67;;;;;20.09;71.86;101586.41;5061929;28;45334;-79
2023/09/14 01:51:48;;;;;;;;;19.00;18.33;;;;;20.14;71.73;101604.91;5063865;27;45420;-78
2023/09/14 01:54:14;;;;;;;;;21.00;19.33;;;;;20.21;71.64;101608.31;5065970;27;45228;-78
2023/09/14 01:56:40;;;;;;;;;20.33;20.00;;;;;19.94;72.02;101565.50;5072581;28;45402;-78
2023/09/14 01:59:06;;;;;;;;;19.33;17.00;;;;;20.18;72.29;101611.03;5068435;27;45409;-78
2023/09/14 02:01:31;;;;;;;;;20.00;19.33;;;;;20.11;72.37;101615.63;5063090;27;45520;-79
2023/09/14 02:03:57;;;;;;;;;19.67;19.67;;;;;20.00;72.34;101601.72;5092932;27;45428;-79
2023/09/14 02:06:23;;;;;;;;;18.67;18.67;;;;;19.97;72.30;101601.78;5059420;27;45484;-78
2023/09/14 02:08:48;;;;;;;;;22.00;20.00;;;;;20.17;72.33;101622.56;5072814;27;46380;-78
2023/09/14 02:11:14;;;;;;;;;19.67;18.33;;;;;20.16;72.33;101626.16;5078505;27;45370;-77
2023/09/14 02:13:40;;;;;;;;;24.00;18.67;;;;;20.05;72.43;101597.16;5078916;28;45514;-79
2023/09/14 02:16:06;;;;;;;;;22.67;18.67;;;;;20.05;72.21;101602.47;5070702;27;45416;-76
2023/09/14 02:18:32;;;;;;;;;16.33;16.33;;;;;20.07;71.97;101605.97;5058880;28;45446;-79
2023/09/14 02:20:57;;;;;;;;;17.67;16.33;;;;;20.18;72.71;101619.03;5063114;27;45497;-79
2023/09/14 02:23:23;;;;;;;;;13.67;11.67;;;;;19.77;72.43;101538.47;5076911;27;45374;-77
2023/09/14 02:25:49;;;;;;;;;18.67;15.33;;;;;20.18;72.27;101601.28;5066470;28;45439;-78
2023/09/14 02:28:15;;;;;;;;;21.00;18.67;;;;;20.24;72.16;101611.78;5079242;27;47032;-78
2023/09/14 02:30:42;;;;;;;;;19.00;16.00;;;;;20.16;72.31;101600.44;5065511;27;45558;-78
2023/09/14 02:33:08;;;;;;;;;22.00;17.33;;;;;20.11;72.50;101597.88;5073974;27;45471;-79
2023/09/14 02:35:34;;;;;;;;;19.33;16.33;;;;;20.27;72.30;101624.13;5071878;28;45297;-78
2023/09/14 02:38:03;;;;;;;;;16.67;16.67;;;;;20.27;72.30;101618.81;5078322;27;45886;-79
2023/09/14 02:40:29;;;;;;;;;17.67;16.33;;;;;20.11;71.96;101573.94;5082272;27;45512;-78
2023/09/14 02:42:55;;;;;;;;;23.00;20.00;;;;;20.30;71.88;101610.75;5077504;27;46650;-78
2023/09/14 02:45:21;;;;;;;;;23.67;20.33;;;;;19.88;72.17;101539.97;5068114;27;45241;-78
2023/09/14 02:47:46;;;;;;;;;22.33;20.67;;;;;19.97;72.56;101578.72;5078437;27;45436;-76
2023/09/14 02:50:12;;;;;;;;;18.67;18.67;;;;;19.86;72.69;101564.81;5077510;27;45348;-77
2023/09/14 02:53:00;;;;;;;;;21.33;20.00;;;;;19.76;73.05;101549.97;5080783;27;45420;-81
2023/09/14 02:55:31;;;;;;;;;20.67;18.00;;;;;19.86;73.12;101576.34;5072436;28;45422;-79
2023/09/14 02:58:06;;;;;;;;;22.00;19.33;;;;;20.11;72.46;101618.28;5075035;27;46580;-77
2023/09/14 03:00:31;;;;;;;;;23.00;20.33;;;;;20.09;72.50;101601.50;5060375;27;45345;-78
2023/09/14 03:03:02;;;;;;;;;24.33;20.33;;;;;19.92;72.80;101577.97;5067423;27;45302;-79
2023/09/14 03:05:28;;;;;;;;;22.00;20.33;;;;;20.10;72.36;101605.91;5074252;27;45160;-79
2023/09/14 03:08:06;;;;;;;;;23.00;20.67;;;;;20.05;72.42;101603.38;5064061;28;45400;-80
2023/09/14 03:10:32;;;;;;;;;18.00;14.33;;;;;20.06;72.28;101601.56;5063383;27;45350;-77
2023/09/14 03:13:02;;;;;;;;;20.33;18.67;;;;;20.07;72.38;101598.00;5073145;27;44781;-77
2023/09/14 03:15:34;;;;;;;;;20.67;18.00;;;;;20.03;72.74;101597.19;5063324;27;45439;-79
2023/09/14 03:18:08;;;;;;;;;25.00;21.67;;;;;19.98;72.79;101595.53;5056809;27;45460;-78
2023/09/14 03:20:34;;;;;;;;;24.67;21.00;;;;;19.85;72.60;101587.84;5059576;28;45511;-77
2023/09/14 03:23:00;;;;;;;;;27.33;24.67;;;;;19.66;72.68;101550.16;5079591;28;45388;-73
2023/09/14 03:25:26;;;;;;;;;20.67;17.33;;;;;19.74;72.16;101559.78;5080113;27;45474;-79
2023/09/14 03:27:52;;;;;;;;;29.00;25.00;;;;;19.92;72.34;101593.91;5078204;28;45429;-74
2023/09/14 03:30:18;;;;;;;;;24.33;19.33;;;;;19.84;72.40;101593.22;5066879;27;45540;-75
2023/09/14 03:32:44;;;;;;;;;20.00;19.00;;;;;19.76;72.72;101587.19;5057752;27;45244;-71
2023/09/14 03:35:09;;;;;;;;;19.00;19.00;;;;;19.54;73.13;101563.72;5057974;27;45417;-74
2023/09/14 03:37:35;;;;;;;;;25.67;23.33;;;;;19.70;73.30;101590.88;5058479;28;46595;-71
2023/09/14 03:40:01;;;;;;;;;25.33;19.33;;;;;19.71;73.28;101589.97;5064983;28;45385;-73
2023/09/14 03:42:27;;;;;;;;;28.33;22.00;;;;;19.51;73.43;101566.47;5077299;27;45481;-70
2023/09/14 03:44:52;;;;;;;;;26.00;18.67;;;;;19.70;73.25;101585.56;5077487;28;45702;-69
2023/09/14 03:47:18;;;;;;;;;20.00;18.67;;;;;19.64;73.09;101570.56;5077172;28;45535;-76
2023/09/14 03:49:43;;;;;;;;;20.00;18.00;;;;;19.79;73.01;101585.38;5077313;28;45423;-73
2023/09/14 03:52:09;;;;;;;;;22.67;20.33;;;;;19.55;73.11;101557.53;5077343;28;45441;-74
2023/09/14 03:54:35;;;;;;;;;22.33;19.00;;;;;19.38;73.29;101522.47;5077557;28;45519;-77
2023/09/14 03:57:01;;;;;;;;;24.33;20.33;;;;;19.71;73.13;101576.66;5076910;28;46171;-79
2023/09/14 03:59:27;;;;;;;;;26.67;24.67;;;;;19.65;73.54;101580.31;5077425;28;45827;-73
2023/09/14 04:01:52;;;;;;;;;17.67;16.67;;;;;19.38;73.51;101539.28;5078280;28;45369;-78
2023/09/14 04:04:18;;;;;;;;;21.67;21.00;;;;;19.58;73.78;101581.38;5073265;28;45522;-78
2023/09/14 04:06:47;;;;;;;;;20.00;19.67;;;;;19.62;73.83;101571.53;5059206;27;46517;-75
2023/09/14 04:09:12;;;;;;;;;20.33;14.33;;;;;19.20;73.45;101499.84;5079189;28;45191;-78
2023/09/14 04:11:38;;;;;;;;;23.67;20.67;;;;;19.56;73.38;101545.97;5077954;28;45386;-79
2023/09/14 04:14:03;;;;;;;;;22.33;19.67;;;;;19.69;73.45;101568.75;5073549;28;45604;-78
2023/09/14 04:16:30;;;;;;;;;24.33;19.00;;;;;19.57;73.61;101560.13;5071884;28;45463;-78
2023/09/14 04:19:02;;;;;;;;;21.67;21.67;;;;;19.59;73.46;101572.47;5079044;28;45575;-80
2023/09/14 04:21:28;;;;;;;;;22.00;19.67;;;;;19.32;73.54;101542.06;5080383;28;45915;-79
2023/09/14 04:23:55;;;;;;;;;21.67;17.00;;;;;19.59;73.79;101575.13;5080332;28;45408;-79
2023/09/14 04:26:21;;;;;;;;;20.67;18.67;;;;;19.48;73.55;101554.13;5080080;28;46598;-80
2023/09/14 04:28:48;;;;;;;;;22.00;18.67;;;;;19.55;73.71;101572.56;5079393;27;45384;-80
2023/09/14 04:31:14;;;;;;;;;22.00;19.33;;;;;19.42;73.62;101550.72;5077467;27;45419;-70
2023/09/14 04:33:43;;;;;;;;;21.67;16.33;;;;;19.48;73.36;101562.09;5077800;27;45464;-80
2023/09/14 04:36:09;;;;;;;;;16.33;16.00;;;;;19.65;73.48;101588.28;5077930;27;45504;-79
2023/09/14 04:38:36;;;;;;;;;19.00;17.67;;;;;19.42;73.44;101542.75;5077149;27;45582;-79
2023/09/14 04:41:04;;;;;;;;;25.67;18.00;;;;;19.61;73.30;101569.78;5075932;28;45369;-79
2023/09/14 04:43:32;;;;;;;;;20.33;16.33;;;;;19.72;73.11;101578.44;5076488;27;45448;-72
2023/09/14 04:46:04;;;;;;;;;20.67;18.00;;;;;19.50;73.05;101538.13;5077360;28;45636;-78
2023/09/14 04:48:30;;;;;;;;;16.67;16.67;;;;;19.72;73.22;101578.44;5081405;27;45881;-78
2023/09/14 04:50:57;;;;;;;;;15.33;13.67;;;;;19.73;72.99;101582.81;5081568;27;45709;-79
2023/09/14 04:53:24;;;;;;;;;22.67;18.33;;;;;19.62;73.01;101577.75;5081138;27;45291;-79
2023/09/14 04:55:49;;;;;;;;;20.33;19.00;;;;;19.59;72.95;101558.31;5080326;28;45443;-80
2023/09/14 04:58:15;;;;;;;;;16.67;16.00;;;;;19.39;72.89;101516.25;5080137;28;45366;-78
2023/09/14 05:00:40;;;;;;;;;21.67;21.67;;;;;19.73;72.82;101576.66;5080770;28;45378;-78
2023/09/14 05:03:06;;;;;;;;;21.00;18.00;;;;;19.67;72.54;101567.88;5083378;27;45360;-78
2023/09/14 05:05:32;;;;;;;;;25.00;21.00;;;;;19.78;72.27;101582.72;5067426;27;46733;-73
2023/09/14 05:07:58;;;;;;;;;24.67;20.00;;;;;19.73;72.40;101580.16;5070754;27;45384;-79
2023/09/14 05:10:25;;;;;;;;;21.00;17.33;;;;;19.73;72.07;101568.66;5087218;28;45459;-79
2023/09/14 05:12:51;;;;;;;;;21.00;17.00;;;;;19.69;71.97;101562.53;5088486;28;45310;-78
2023/09/14 05:15:17;;;;;;;;;19.00;16.00;;;;;19.72;71.94;101573.13;5083322;28;45753;-77
2023/09/14 05:17:44;;;;;;;;;20.33;18.33;;;;;19.80;71.94;101587.09;5082512;28;45422;-79
2023/09/14 05:20:11;;;;;;;;;16.33;15.67;;;;;19.85;72.21;101602.94;5074954;27;45384;-76
2023/09/14 05:22:40;;;;;;;;;20.33;20.00;;;;;19.83;72.33;101600.31;5061228;27;45560;-76
2023/09/14 05:25:05;;;;;;;;;23.00;18.67;;;;;19.64;72.09;101561.75;5058834;27;46436;-78
2023/09/14 05:27:38;;;;;;;;;23.33;19.00;;;;;19.81;72.01;101583.53;5074768;27;45382;-80
2023/09/14 05:30:09;;;;;;;;;21.33;18.67;;;;;19.79;71.86;101580.03;5058263;28;45409;-79
2023/09/14 05:32:36;;;;;;;;;26.33;23.33;;;;;19.68;72.29;101587.38;5060044;27;45458;-76
2023/09/14 05:35:02;;;;;;;;;33.00;26.33;;;;;19.64;72.33;101585.66;5059919;27;45786;-79
2023/09/14 05:37:28;;;;;;;;;26.67;24.33;;;;;19.36;72.71;101557.06;5059823;27;45382;-77
2023/09/14 05:39:54;;;;;;;;;27.67;26.00;;;;;19.29;72.65;101566.03;5067691;27;45520;-79
2023/09/14 05:42:21;;;;;;;;;29.00;27.00;;;;;19.55;73.16;101612.41;5065207;27;45382;-79
2023/09/14 05:44:48;;;;;;;;;35.67;31.33;;;;;19.17;72.97;101556.56;5060548;27;45679;-79
2023/09/14 05:47:14;;;;;;;;;34.67;30.00;;;;;19.04;73.66;101555.06;5060351;27;45866;-81
2023/09/14 05:49:40;;;;;;;;;25.00;24.00;;;;;19.32;73.65;101600.50;5059342;27;45418;-79
2023/09/14 05:52:05;;;;;;;;;27.67;26.33;;;;;19.32;73.73;101599.66;5060481;27;45488;-79
2023/09/14 05:54:31;;;;;;;;;28.33;26.00;;;;;19.27;73.85;101595.28;5065814;27;45633;-79
2023/09/14 05:56:56;;;;;;;;;33.33;24.00;;;;;19.17;73.78;101582.22;5076656;27;45530;-78
2023/09/14 05:59:22;;;;;;;;;32.67;27.67;;;;;19.25;74.47;101602.41;5064109;27;45528;-78
2023/09/14 06:01:48;;;;;;;;;30.00;26.00;;;;;19.21;74.49;101586.56;5065885;27;45464;-80
2023/09/14 06:04:13;;;;;;;;;26.33;24.33;;;;;19.44;74.08;101612.66;5073605;27;45959;-80
2023/09/14 06:06:39;;;;;;;;;26.67;24.67;;;;;19.31;74.11;101593.44;5076149;27;45479;-79
2023/09/14 06:09:05;;;;;;;;;36.00;31.67;;;;;19.41;74.35;101610.06;5081781;28;45471;-74
2023/09/14 06:11:32;;;;;;;;;34.67;26.00;;;;;19.16;74.16;101584.00;5080969;27;45492;-79
2023/09/14 06:13:58;;;;;;;;;29.00;24.67;;;;;19.31;74.85;101620.00;5079963;27;46370;-79
2023/09/14 06:16:23;;;;;;;;;22.67;21.33;;;;;19.35;74.92;101620.81;5079560;28;45464;-74
2023/09/14 06:18:49;;;;;;;;;31.00;29.33;;;;;19.15;74.87;101578.72;5079366;27;45992;-80
2023/09/14 06:21:14;;;;;;;;;27.00;22.00;;;;;19.30;74.72;101590.81;5080651;27;45357;-77
2023/09/14 06:23:40;;;;;;;;;30.00;27.33;;;;;19.40;74.21;101601.22;5079767;28;45544;-81
2023/09/14 06:26:06;;;;;;;;;35.33;28.00;;;;;19.35;73.94;101592.47;5079246;28;45440;-71
2023/09/14 06:28:31;;;;;;;;;28.00;26.33;;;;;19.57;73.91;101618.59;5063978;27;45406;-75
2023/09/14 06:30:58;;;;;;;;;23.67;20.67;;;;;19.47;73.86;101599.31;5059546;27;45536;-81
2023/09/14 06:33:23;;;;;;;;;28.67;24.33;;;;;19.72;73.64;101625.38;5065369;27;47314;-76
2023/09/14 06:35:49;;;;;;;;;32.33;23.33;;;;;19.76;73.56;101627.94;5058899;27;45447;-75
2023/09/14 06:38:14;;;;;;;;;23.33;22.67;;;;;19.64;73.89;101607.78;5058028;27;45484;-74
2023/09/14 06:40:40;;;;;;;;;29.00;26.33;;;;;19.71;73.94;101627.16;5059518;27;45567;-75
2023/09/14 06:43:05;;;;;;;;;37.00;32.33;;;;;19.60;74.16;101603.47;5061501;27;45457;-73
2023/09/14 06:45:33;;;;;;;;;35.33;30.67;;;;;19.65;74.42;101625.50;5059238;27;45519;-72
2023/09/14 06:47:58;;;;;;;;;32.00;29.33;;;;;19.55;74.88;101620.41;5059444;27;45558;-71
2023/09/14 06:50:24;;;;;;;;;37.67;31.33;;;;;19.46;74.35;101600.22;5058171;27;45513;-74
2023/09/14 06:52:53;;;;;;;;;32.67;31.00;;;;;19.50;74.65;101612.53;5069594;27;46318;-73
2023/09/14 06:55:20;;;;;;;;;32.00;29.00;;;;;19.67;74.13;101631.66;5057567;27;45362;-73
2023/09/14 06:57:45;;;;;;;;;32.00;30.67;;;;;19.62;74.00;101624.66;5058946;27;45590;-70
2023/09/14 07:00:15;;;;;;;;;38.00;30.67;;;;;19.57;74.14;101618.59;5059455;27;45599;-70
2023/09/14 07:02:41;;;;;;;;;30.00;27.67;;;;;19.74;73.80;101640.38;5068450;27;45441;-69
2023/09/14 07:05:10;;;;;;;;;30.33;25.67;;;;;19.89;73.12;101640.06;5060005;27;45576;-71
2023/09/14 07:07:37;;;;;;;;;36.33;29.67;;;;;19.97;73.18;101644.31;5059097;27;45219;-71
2023/09/14 07:10:04;;;;;;;;;33.67;33.33;;;;;19.95;73.51;101635.50;5071905;28;45398;-72
2023/09/14 07:12:29;;;;;;;;;37.33;34.33;;;;;19.84;73.17;101633.97;5073148;28;47800;-72
2023/09/14 07:14:55;;;;;;;;;28.67;28.00;;;;;19.78;73.16;101626.13;5071957;28;45406;-71
2023/09/14 07:17:20;;;;;;;;;34.33;28.67;;;;;19.79;73.26;101632.31;5078656;28;45380;-71
2023/09/14 07:19:46;;;;;;;;;37.33;32.00;;;;;19.80;72.96;101629.63;5076460;28;45477;-71
2023/09/14 07:22:11;;;;;;;;;29.00;26.33;;;;;19.85;72.93;101630.41;5060977;28;45545;-71
2023/09/14 07:24:37;;;;;;;;;37.00;32.00;;;;;19.94;72.54;101636.44;5061587;27;45467;-72
2023/09/14 07:27:02;;;;;;;;;29.67;29.67;;;;;20.02;73.21;101637.13;5078599;27;45415;-73
2023/09/14 07:29:29;;;;;;;;;42.00;34.67;;;;;19.96;73.21;101637.28;5062694;27;45469;-74
2023/09/14 07:31:57;;;;;;;;;39.67;35.67;;;;;19.69;73.42;101607.72;5078970;27;48294;-73
2023/09/14 07:34:24;;;;;;;;;34.00;27.00;;;;;19.11;73.06;101505.34;5071415;27;45386;-74
2023/09/14 07:36:49;;;;;;;;;33.33;29.33;;;;;19.92;72.74;101631.13;5077975;27;45527;-74
2023/09/14 07:39:15;;;;;;;;;37.67;30.33;;;;;20.09;72.32;101641.38;5078943;27;45506;-75
2023/09/14 07:41:41;;;;;;;;;34.33;28.67;;;;;20.23;72.26;101647.25;5077156;27;45425;-74
2023/09/14 07:44:08;;;;;;;;;36.00;31.33;;;;;20.20;71.92;101615.41;5077889;28;45581;-74
2023/09/14 07:46:33;;;;;;;;;35.33;31.33;;;;;20.01;71.21;101585.72;5061887;27;45478;-72
2023/09/14 07:48:59;;;;;;;;;40.33;33.67;;;;;20.45;71.33;101646.72;5077828;27;45317;-75
2023/09/14 07:51:25;;;;;;;;;39.00;33.67;;;;;20.19;70.53;101579.06;5078261;27;45278;-74
2023/09/14 07:53:53;;;;;;;;;32.00;29.00;;;;;20.51;70.15;101610.19;5078757;27;45218;-74
2023/09/14 07:56:18;;;;;;;;;34.00;29.67;;;;;20.32;69.01;101526.44;5078976;27;45414;-74
2023/09/14 07:58:44;;;;;;;;;39.67;33.67;;;;;21.07;68.10;101649.59;5078046;27;45536;-74
2023/09/14 08:01:10;;;;;;;;;50.33;40.00;;;;;21.06;68.37;101652.31;5077445;28;46502;-74
2023/09/14 08:03:38;;;;;;;;;33.33;32.00;;;;;20.77;68.21;101623.78;5072754;27;45491;-74
2023/09/14 08:06:04;;;;;;;;;31.33;29.67;;;;;20.21;68.25;101542.66;5057994;28;45641;-74
2023/09/14 08:08:30;;;;;;;;;32.00;27.67;;;;;20.60;68.02;101579.00;5075216;28;45647;-71
2023/09/14 08:10:56;;;;;;;;;37.67;33.00;;;;;20.57;67.67;101593.22;5076319;28;47835;-75
2023/09/14 08:13:22;;;;;;;;;34.33;29.33;;;;;20.94;67.67;101658.81;5080119;27;45471;-75
2023/09/14 08:15:47;;;;;;;;;36.00;28.67;;;;;20.53;67.41;101588.88;5080510;28;45373;-76
2023/09/14 08:18:13;;;;;;;;;37.67;31.67;;;;;20.39;67.73;101575.94;5081968;28;45408;-79
2023/09/14 08:20:42;;;;;;;;;30.67;27.33;;;;;20.91;67.59;101669.56;5078817;28;45401;-77
2023/09/14 08:23:09;;;;;;;;;30.67;29.33;;;;;20.86;67.80;101676.81;5077091;28;45441;-77
2023/09/14 08:25:37;;;;;;;;;32.00;28.33;;;;;20.93;67.82;101660.63;5078276;28;45294;-77
2023/09/14 08:28:04;;;;;;;;;31.33;27.33;;;;;20.77;67.40;101645.97;5077386;27;45353;-74
2023/09/14 08:30:29;;;;;;;;;35.33;32.00;;;;;20.93;67.11;101665.09;5074359;28;46429;-76
2023/09/14 08:32:55;;;;;;;;;32.67;28.67;;;;;21.07;66.98;101672.69;5069077;27;45469;-77
2023/09/14 08:35:27;;;;;;;;;29.33;28.33;;;;;21.09;67.13;101666.38;5057630;28;45389;-72
2023/09/14 08:37:54;;;;;;;;;34.00;29.33;;;;;21.05;66.16;101638.13;5058674;27;45670;-71
2023/09/14 08:40:21;;;;;;;;;37.33;30.33;;;;;21.12;66.00;101668.13;5066431;28;45485;-71
2023/09/14 08:42:49;;;;;;;;;30.67;26.00;;;;;20.87;65.67;101630.63;5066112;27;45338;-73
2023/09/14 08:45:22;;;;;;;;;28.67;25.33;;;;;20.96;66.07;101665.84;5067565;27;45618;-72
2023/09/14 08:47:49;;;;;;;;;29.67;28.33;;;;;20.98;66.12;101673.81;5069032;28;45952;-73
2023/09/14 08:50:17;;;;;;;;;29.67;27.33;;;;;20.95;66.24;101665.88;5069038;28;45441;-73
2023/09/14 08:52:43;;;;;;;;;29.67;23.33;;;;;20.91;66.43;101656.25;5069855;28;46199;-73
2023/09/14 08:55:10;;;;;;;;;22.67;22.67;;;;;21.05;66.28;101667.41;5100747;27;46035;-72
2023/09/14 08:57:38;;;;;;;;;25.67;18.67;;;;;20.94;65.89;101638.38;5064182;28;45504;-72
2023/09/14 09:00:15;;;;;;;;;22.00;18.33;;;;;21.18;64.71;101674.13;5067848;28;46102;-67
2023/09/14 09:02:54;;;;;;;;;22.00;17.33;;;;;21.31;64.73;101677.34;5069603;27;45263;-70
2023/09/14 09:05:21;;;;;;;;;23.67;21.33;;;;;21.40;64.32;101676.22;5064112;27;45475;-69
2023/09/14 09:07:51;;;;;;;;;21.33;18.00;;;;;21.38;64.07;101649.63;5070891;28;45570;-68
2023/09/14 09:10:21;;;;;;;;;16.33;15.67;;;;;21.58;63.84;101670.38;5069206;28;45853;-70
2023/09/14 09:12:49;;;;;;;;;16.00;13.33;;;;;21.62;63.43;101663.19;5060790;28;45521;-70
2023/09/14 09:15:15;;;;;;;;;26.00;22.00;;;;;21.68;62.93;101652.31;5053370;28;45564;-67
2023/09/14 09:17:41;;;;;;;;;28.33;22.33;;;;;21.79;63.16;101652.03;5054330;28;46051;-70
2023/09/14 09:20:23;;;;;;;;;25.00;24.00;;;;;21.94;62.99;101672.88;5053493;28;45954;-69
2023/09/14 09:22:51;;;;;;;;;22.33;19.00;;;;;21.99;62.63;101673.59;5054878;28;45640;-69
2023/09/14 09:25:17;;;;;;;;;29.67;27.33;;;;;21.73;62.25;101660.19;5058813;28;45457;-69
2023/09/14 09:27:43;;;;;;;;;41.33;29.67;;;;;21.67;63.18;101668.38;5054756;28;45678;-67
2023/09/14 09:30:11;;;;;;;;;26.67;26.67;;;;;21.41;63.75;101647.81;5053169;28;45501;-70
2023/09/14 09:32:38;;;;;;;;;28.33;28.33;;;;;21.57;64.12;101675.78;5054240;28;45454;-69
2023/09/14 09:35:15;;;;;;;;;34.67;31.33;;;;;21.50;64.47;101677.75;5057222;28;45513;-70
2023/09/14 09:37:41;;;;;;;;;33.67;26.67;;;;;21.45;64.90;101671.69;5058290;28;45938;-69
2023/09/14 09:40:21;;;;;;;;;42.67;29.33;;;;;21.49;64.05;101665.31;5066235;28;45466;-70
2023/09/14 09:42:47;;;;;;;;;33.00;25.33;;;;;21.42;64.84;101647.75;5035664;28;45405;-69
2023/09/14 09:45:14;;;;;;;;;32.00;24.33;;;;;21.52;64.75;101667.91;5057259;28;45397;-69
2023/09/14 09:47:41;;;;;;;;;16.67;11.67;;;;;21.52;64.87;101669.69;5057982;28;45521;-69
2023/09/14 09:50:15;;;;;;;;;31.00;25.00;;;;;21.49;64.40;101665.31;5056229;28;45979;-69
2023/09/14 09:52:44;;;;;;;;;33.67;28.00;;;;;21.44;64.63;101650.38;5056472;28;45406;-69
2023/09/14 09:55:18;;;;;;;;;29.33;28.33;;;;;21.53;65.00;101661.66;5058139;28;45471;-69
2023/09/14 09:57:52;;;;;;;;;28.33;23.33;;;;;21.53;64.50;101650.13;5057079;28;45335;-69
2023/09/14 10:00:19;;;;;;;;;32.00;28.00;;;;;21.71;63.59;101652.25;5056081;28;46430;-69
2023/09/14 10:02:50;;;;;;;;;27.33;22.67;;;;;21.79;63.15;101660.03;5066724;28;45426;-69
2023/09/14 10:05:15;;;;;;;;;22.67;19.67;;;;;21.86;62.89;101663.38;5055044;28;45514;-69
2023/09/14 10:07:41;;;;;;;;;23.00;21.33;;;;;21.96;62.88;101663.03;5063802;28;45351;-69
2023/09/14 10:10:11;;;;;;;;;25.00;22.33;;;;;22.00;62.78;101663.84;5038990;28;47520;-70
2023/09/14 10:12:41;;;;;;;;;20.33;17.33;;;;;22.02;62.36;101662.00;5069407;28;45486;-71
2023/09/14 10:15:09;;;;;;;;;20.67;17.00;;;;;22.11;62.48;101660.81;5076531;28;45550;-70
2023/09/14 10:17:35;;;;;;;;;25.00;21.33;;;;;22.21;62.19;101657.84;5076917;28;45394;-70
2023/09/14 10:20:08;;;;;;;;;25.67;22.00;;;;;22.26;62.15;101656.81;5075941;27;46183;-69
2023/09/14 10:22:35;;;;;;;;;23.67;22.00;;;;;22.35;61.56;101652.06;5073422;28;45411;-70
2023/09/14 10:25:01;;;;;;;;;27.67;22.67;;;;;22.42;61.53;101656.28;5076683;28;45616;-71
2023/09/14 10:27:29;;;;;;;;;24.33;20.67;;;;;22.39;60.77;101653.69;5072119;28;45446;-73
2023/09/14 10:29:56;;;;;;;;;15.67;14.00;;;;;22.54;60.47;101649.66;5067944;28;47147;-72
2023/09/14 10:32:23;;;;;;;;;17.00;15.67;;;;;22.66;59.92;101640.38;5077110;28;45445;-74
2023/09/14 10:34:50;;;;;;;;;15.33;13.33;;;;;22.84;59.28;101629.03;5094478;27;45515;-72
2023/09/14 10:37:19;;;;;;;;;17.00;16.00;;;;;23.16;58.03;101629.72;5094998;27;45441;-73
2023/09/14 10:39:45;;;;;;;;;15.33;12.00;;;;;23.74;57.39;101631.16;5077101;28;46504;-72
2023/09/14 10:42:11;;;;;;;;;10.33;9.67;;;;;24.13;56.24;101618.00;5077881;28;45454;-75
2023/09/14 10:44:37;;;;;;;;;12.00;11.33;;;;;24.33;55.92;101602.00;5078051;27;45424;-72
2023/09/14 10:47:05;;;;;;;;;14.33;9.33;;;;;24.46;53.37;101594.34;5078491;28;45422;-74
2023/09/14 10:49:36;;;;;;;;;11.67;8.00;;;;;24.51;53.65;101586.09;5073314;28;45542;-73
2023/09/14 10:52:02;;;;;;;;;14.00;11.67;;;;;24.61;53.99;101586.59;5069389;28;45442;-74
2023/09/14 10:54:31;;;;;;;;;11.67;10.67;;;;;24.85;53.93;101592.69;5078118;28;45379;-73
2023/09/14 10:57:01;;;;;;;;;12.00;10.00;;;;;25.12;53.08;101594.13;5078189;27;45450;-74
2023/09/14 10:59:48;;;;;;;;;11.25;8.50;;;;;25.35;51.78;101590.41;5077695;28;45404;-73
2023/09/14 11:02:37;;;;;;;;;10.50;6.25;;;;;25.64;51.62;101593.53;5078338;28;45424;-75
2023/09/14 11:05:12;;;;;;;;;16.00;10.25;;;;;25.97;50.74;101593.75;5063783;27;45642;-74
2023/09/14 11:07:40;;;;;;;;;11.50;8.25;;;;;26.18;50.25;101583.78;5078562;28;45460;-73
2023/09/14 11:10:07;;;;;;;;;8.50;8.25;;;;;26.54;49.38;101576.66;5077707;27;46502;-74
2023/09/14 11:12:33;;;;;;;;;9.00;8.25;;;;;26.92;47.99;101571.94;5077791;28;45671;-75